Time;durP1;ratioP1;P1;durP2;ratioP2;P2;SDS_P1;SDS_P2;PMS_P1;PMS_P2;Temp;Humidity;BMP_temperature;BMP_pressure;BME280_temperature;BME280_humidity;BME280_pressure;Samples;Min_cycle;Max_cycle;Signal;HPM_P1;HPM_P2
2021/04/14 00:02:25;;;;;;;3.53;2.50;;;8.30;64.40;;;;;;6174377;23;20414;-77
2021/04/14 00:05:09;;;;;;;7.30;2.67;;;8.20;64.90;;;;;;6175190;23;20505;-82
2021/04/14 00:08:10;;;;;;;3.80;2.60;;;8.20;65.00;;;;;;6152762;23;20407;-80
2021/04/14 00:11:03;;;;;;;3.90;2.20;;;8.10;65.60;;;;;;6132237;23;20430;-82
2021/04/14 00:13:56;;;;;;;;;;;;;;;;;;;;;
2021/04/14 00:16:35;;;;;;;3.27;2.40;;;8.10;66.00;;;;;;6150115;23;20810;-80
2021/04/14 00:19:20;;;;;;;3.37;2.00;;;8.00;66.40;;;;;;6186667;23;20451;-80
2021/04/14 00:22:04;;;;;;;2.50;2.30;;;8.10;66.80;;;;;;6162422;23;20469;-77
2021/04/14 00:24:56;;;;;;;3.40;2.60;;;8.00;67.10;;;;;;6175423;23;20462;-82
2021/04/14 00:27:41;;;;;;;4.40;2.40;;;8.10;67.60;;;;;;6152249;23;20410;-78
2021/04/14 00:33:58;;;;;;;5.33;2.83;;;8.40;68.00;;;;;;6147187;23;20430;-79
2021/04/14 00:36:54;;;;;;;;;;;;;;;;;;;;;
2021/04/14 00:39:32;;;;;;;4.13;3.30;;;8.10;70.50;;;;;;6158454;23;20417;-78
2021/04/14 00:42:13;;;;;;;5.03;3.23;;;8.10;72.30;;;;;;6180314;23;20399;-80
2021/04/14 00:44:48;;;;;;;4.63;3.17;;;8.10;72.70;;;;;;6186685;23;20505;-80
2021/04/14 00:47:26;;;;;;;9.73;4.20;;;7.90;74.30;;;;;;6159172;23;20410;-83
2021/04/14 00:50:23;;;;;;;6.40;3.97;;;7.80;75.60;;;;;;6151134;23;20497;-80
2021/04/14 00:53:05;;;;;;;5.10;4.03;;;7.70;76.80;;;;;;6154765;23;20399;-82
2021/04/14 00:55:46;;;;;;;5.57;3.70;;;7.70;77.80;;;;;;6171191;23;20447;-81
2021/04/14 00:58:21;;;;;;;9.00;3.97;;;7.80;78.70;;;;;;6151205;23;20407;-80
2021/04/14 01:01:13;;;;;;;5.13;3.43;;;7.70;79.10;;;;;;6174807;23;20421;-79
2021/04/14 01:03:55;;;;;;;3.90;3.37;;;7.50;80.20;;;;;;6151429;23;20430;-81
2021/04/14 01:06:48;;;;;;;4.77;3.67;;;7.40;81.60;;;;;;6153034;23;20419;-82
2021/04/14 01:12:15;;;;;;;5.57;3.70;;;7.40;83.70;;;;;;6150651;23;20415;-78
2021/04/14 01:14:51;;;;;;;5.80;4.40;;;7.30;85.10;;;;;;6155585;23;20533;-80
2021/04/14 01:17:38;;;;;;;5.03;3.80;;;7.20;85.30;;;;;;6164909;23;20423;-81
2021/04/14 01:20:28;;;;;;;6.83;3.90;;;7.30;86.30;;;;;;6192197;23;20473;-79
2021/04/14 01:23:04;;;;;;;4.20;3.80;;;7.20;87.10;;;;;;6195332;23;20410;-79
2021/04/14 01:25:50;;;;;;;3.77;3.47;;;7.30;87.70;;;;;;6170125;23;20482;-78
2021/04/14 01:28:21;;;;;;;3.70;3.00;;;7.20;87.90;;;;;;6171494;23;20390;-78
2021/04/14 01:31:02;;;;;;;4.03;3.47;;;7.20;88.40;;;;;;6173273;23;20469;-79
2021/04/14 01:33:54;;;;;;;5.67;3.07;;;7.20;88.70;;;;;;6195776;23;20403;-80
2021/04/14 01:36:44;;;;;;;4.93;4.10;;;7.20;89.00;;;;;;6167527;23;20411;-79
2021/04/14 01:39:38;;;;;;;5.10;3.80;;;7.30;89.00;;;;;;6170715;23;20426;-80
2021/04/14 01:42:26;;;;;;;6.97;4.83;;;7.40;89.30;;;;;;6192512;23;20391;-79
2021/04/14 01:44:56;;;;;;;5.27;3.90;;;7.70;89.60;;;;;;6195757;23;20427;-79
2021/04/14 01:47:25;;;;;;;9.00;4.40;;;7.60;89.50;;;;;;6195235;23;20470;-78
2021/04/14 01:50:19;;;;;;;4.83;3.60;;;7.70;89.60;;;;;;6177859;23;20395;-79
2021/04/14 01:53:03;;;;;;;7.23;3.47;;;7.70;88.80;;;;;;6173518;23;20394;-79
2021/04/14 01:55:41;;;;;;;6.00;3.40;;;7.80;86.30;;;;;;6170511;23;20435;-78
2021/04/14 01:58:21;;;;;;;5.13;3.60;;;7.50;86.10;;;;;;6196891;23;20394;-78
2021/04/14 02:00:59;;;;;;;5.40;3.30;;;7.40;86.50;;;;;;6198005;23;20556;-78
2021/04/14 02:03:46;;;;;;;6.23;3.60;;;7.20;87.00;;;;;;6193392;23;20423;-80
2021/04/14 02:06:20;;;;;;;4.80;3.73;;;7.30;86.90;;;;;;6171437;23;20414;-78
2021/04/14 02:08:53;;;;;;;4.33;3.90;;;7.10;87.20;;;;;;6168965;23;20414;-79
2021/04/14 02:14:31;;;;;;;6.00;3.67;;;7.00;88.40;;;;;;6169695;23;20510;-77
2021/04/14 02:17:05;;;;;;;5.13;3.37;;;7.00;88.70;;;;;;6165616;23;20415;-84
2021/04/14 02:19:50;;;;;;;5.00;3.00;;;6.90;88.90;;;;;;6111293;23;20808;-81
2021/04/14 02:22:40;;;;;;;6.07;3.90;;;6.90;90.00;;;;;;6153553;23;20762;-78
2021/04/14 02:25:18;;;;;;;5.03;4.20;;;6.90;90.70;;;;;;6153372;23;20468;-78
2021/04/14 02:28:09;;;;;;;;;;;;;;;;;;;;;
2021/04/14 02:30:48;;;;;;;6.00;4.50;;;6.90;90.50;;;;;;6157576;23;20418;-80
2021/04/14 02:33:37;;;;;;;7.10;4.53;;;6.90;90.10;;;;;;6156872;23;20426;-79
2021/04/14 02:36:37;;;;;;;7.27;4.53;;;6.90;89.40;;;;;;6175734;23;20442;-80
2021/04/14 02:39:18;;;;;;;5.33;3.97;;;6.90;89.40;;;;;;6155880;23;20423;-79
2021/04/14 02:42:10;;;;;;;6.10;4.80;;;7.00;89.30;;;;;;6178383;23;20399;-81
2021/04/14 02:44:59;;;;;;;5.80;4.50;;;6.80;89.30;;;;;;6179619;23;20414;-78
2021/04/14 02:47:46;;;;;;;5.10;4.40;;;6.80;89.30;;;;;;6190176;23;20414;-78
2021/04/14 02:50:35;;;;;;;6.60;5.10;;;6.90;89.10;;;;;;6195425;23;20438;-78
2021/04/14 02:53:20;;;;;;;6.33;4.70;;;6.90;88.80;;;;;;6194071;23;20411;-78
2021/04/14 02:55:58;;;;;;;4.73;4.07;;;7.10;88.80;;;;;;6195435;23;20945;-79
2021/04/14 02:58:37;;;;;;;6.40;4.27;;;7.20;90.80;;;;;;6164795;23;20414;-79
2021/04/14 03:01:21;;;;;;;7.63;4.60;;;7.10;92.20;;;;;;6192074;23;20390;-78
2021/04/14 03:04:06;;;;;;;7.10;5.10;;;6.80;92.90;;;;;;6171424;23;20929;-78
2021/04/14 03:07:00;;;;;;;6.60;5.13;;;6.60;93.20;;;;;;6193036;23;20415;-79
2021/04/14 03:09:49;;;;;;;5.47;4.90;;;6.40;93.90;;;;;;6196395;23;20486;-80
2021/04/14 03:12:33;;;;;;;6.00;5.23;;;6.20;94.30;;;;;;6193860;23;20418;-80
2021/04/14 03:15:18;;;;;;;9.33;5.63;;;6.10;94.50;;;;;;6169327;23;20478;-80
2021/04/14 03:18:06;;;;;;;6.20;5.53;;;6.00;94.80;;;;;;6192559;23;20409;-78
2021/04/14 03:20:49;;;;;;;8.77;4.77;;;6.00;94.90;;;;;;6168818;23;20462;-80
2021/04/14 03:23:34;;;;;;;6.30;5.30;;;5.80;94.90;;;;;;6169235;23;20422;-79
2021/04/14 03:26:04;;;;;;;5.57;4.70;;;5.80;95.20;;;;;;6162432;23;20450;-82
2021/04/14 03:28:33;;;;;;;7.53;5.40;;;5.70;95.30;;;;;;6158058;23;20494;-79
2021/04/14 03:31:14;;;;;;;7.13;4.93;;;5.50;95.60;;;;;;6160264;23;20418;-82
2021/04/14 03:33:55;;;;;;;6.07;4.90;;;5.30;95.90;;;;;;6165290;23;20458;-78
2021/04/14 03:36:30;;;;;;;7.03;4.40;;;5.30;96.30;;;;;;6190575;23;20450;-77
2021/04/14 03:39:13;;;;;;;4.53;4.07;;;5.20;96.40;;;;;;6172855;23;20477;-84
2021/04/14 03:42:54;;;;;;;8.10;4.47;;;5.00;96.80;;;;;;6154769;23;20815;-81
2021/04/14 03:48:37;;;;;;;6.60;4.40;;;5.00;97.20;;;;;;6152647;23;20415;-82
2021/04/14 03:52:15;;;;;;;8.33;4.60;;;5.00;96.90;;;;;;6167095;23;20446;-78
2021/04/14 03:54:53;;;;;;;4.50;4.10;;;5.10;97.00;;;;;;6193913;23;20571;-78
2021/04/14 03:57:28;;;;;;;6.40;5.40;;;5.10;97.30;;;;;;6197018;23;20417;-78
2021/04/14 04:00:05;;;;;;;5.63;4.90;;;5.10;97.10;;;;;;6173882;23;20410;-79
2021/04/14 04:02:53;;;;;;;5.90;4.60;;;5.00;97.20;;;;;;6196633;23;20402;-79
2021/04/14 04:05:28;;;;;;;7.57;5.33;;;4.90;97.50;;;;;;6196171;23;20437;-77
2021/04/14 04:07:55;;;;;;;6.90;4.97;;;4.90;97.70;;;;;;6192230;23;20465;-79
2021/04/14 04:10:35;;;;;;;4.57;3.77;;;5.00;97.90;;;;;;6152786;23;20423;-79
2021/04/14 04:13:31;;;;;;;;;;;;;;;;;;;;;
2021/04/14 04:16:20;;;;;;;5.30;4.83;;;5.20;97.60;;;;;;6163617;23;20474;-77
2021/04/14 04:18:56;;;;;;;4.63;4.23;;;5.30;97.20;;;;;;6166336;23;20411;-79
2021/04/14 04:21:39;;;;;;;5.97;4.57;;;5.20;97.20;;;;;;6162371;23;20414;-79
2021/04/14 04:24:41;;;;;;;4.30;3.90;;;5.20;97.40;;;;;;6176085;23;20454;-78
2021/04/14 04:27:46;;;;;;;6.70;4.10;;;5.30;97.20;;;;;;6147724;23;20419;-81
2021/04/14 04:30:51;;;;;;;8.23;4.47;;;5.20;97.40;;;;;;6171276;23;20403;-78
2021/04/14 04:33:36;;;;;;;4.67;4.27;;;5.20;97.70;;;;;;6148792;23;20414;-82
2021/04/14 04:36:54;;;;;;;6.50;5.17;;;5.60;98.40;;;;;;6130190;23;20894;-79
2021/04/14 04:39:34;;;;;;;7.23;4.63;;;5.70;98.50;;;;;;6128569;23;20469;-82
2021/04/14 04:42:38;;;;;;;4.80;4.40;;;5.70;98.50;;;;;;6151235;23;20456;-82
2021/04/14 04:48:24;;;;;;;6.33;4.50;;;5.30;98.80;;;;;;6149673;23;20473;-82
2021/04/14 04:50:55;;;;;;;10.83;5.13;;;5.30;99.20;;;;;;6175068;23;20506;-81
2021/04/14 04:53:46;;;;;;;7.80;5.03;;;5.30;99.20;;;;;;6150245;23;20421;-80
2021/04/14 04:56:28;;;;;;;10.13;4.37;;;5.30;99.90;;;;;;6171590;23;21218;-82
2021/04/14 04:58:55;;;;;;;9.93;6.30;;;5.50;99.90;;;;;;6149414;23;20421;-80
2021/04/14 05:01:35;;;;;;;8.93;4.90;;;5.30;99.20;;;;;;6175515;23;20411;-81
2021/04/14 05:04:39;;;;;;;11.57;6.30;;;5.30;99.50;;;;;;6148760;23;20427;-79
2021/04/14 05:07:28;;;;;;;9.90;5.50;;;5.10;99.70;;;;;;6139991;23;20430;-80
2021/04/14 05:10:09;;;;;;;14.33;7.17;;;5.00;99.70;;;;;;6173275;23;20457;-83
2021/04/14 05:12:59;;;;;;;12.50;6.57;;;5.10;99.80;;;;;;6170322;23;20450;-80
2021/04/14 05:15:48;;;;;;;12.47;6.97;;;5.10;99.70;;;;;;6154359;23;20926;-79
2021/04/14 05:18:34;;;;;;;10.67;5.77;;;5.10;99.70;;;;;;6149673;23;20468;-80
2021/04/14 05:22:10;;;;;;;7.80;6.40;;;5.20;99.60;;;;;;6171388;23;20418;-82
2021/04/14 05:25:09;;;;;;;6.57;5.30;;;5.30;99.30;;;;;;6150318;23;20411;-82
2021/04/14 05:28:29;;;;;;;7.93;4.80;;;5.20;99.00;;;;;;6168916;23;20411;-80
2021/04/14 05:34:57;;;;;;;6.30;5.70;;;5.00;99.90;;;;;;6147531;23;20435;-77
2021/04/14 05:37:33;;;;;;;5.93;5.30;;;4.90;99.90;;;;;;6088164;23;20730;-80
2021/04/14 05:40:26;;;;;;;5.80;5.20;;;4.80;99.90;;;;;;6173676;23;20410;-83
2021/04/14 05:42:58;;;;;;;7.00;5.90;;;5.10;99.90;;;;;;6152446;23;21236;-82
2021/04/14 05:45:45;;;;;;;6.53;5.93;;;5.50;99.90;;;;;;6168070;23;20421;-78
2021/04/14 05:48:51;;;;;;;9.00;6.47;;;5.60;99.70;;;;;;6120875;23;20409;-80
2021/04/14 05:51:35;;;;;;;6.37;5.70;;;5.60;99.10;;;;;;6163223;23;20461;-79
2021/04/14 05:54:20;;;;;;;7.00;6.23;;;5.60;99.00;;;;;;6179925;23;20510;-80
2021/04/14 05:57:21;;;;;;;9.53;6.47;;;5.90;98.80;;;;;;6076369;23;20488;-78
2021/04/14 06:00:06;;;;;;;;;;;;;;;;;;;;;
2021/04/14 06:02:43;;;;;;;8.97;6.60;;;6.10;98.60;;;;;;6113338;23;20405;-78
2021/04/14 06:05:19;;;;;;;7.27;6.57;;;6.30;97.50;;;;;;6089693;23;20424;-79
2021/04/14 06:07:48;;;;;;;8.63;6.20;;;6.50;97.40;;;;;;6090594;23;20494;-81
2021/04/14 06:10:40;;;;;;;7.53;6.30;;;7.20;97.40;;;;;;6069932;23;20425;-81
2021/04/14 06:13:33;;;;;;;7.00;6.30;;;8.60;95.50;;;;;;6091065;23;20413;-83
2021/04/14 06:16:21;;;;;;;8.33;5.83;;;10.20;91.40;;;;;;6066742;23;20476;-80
2021/04/14 06:19:36;;;;;;;6.40;5.40;;;10.80;87.60;;;;;;6070074;23;20751;-82
2021/04/14 06:22:41;;;;;;;8.40;6.00;;;11.00;83.90;;;;;;6089570;23;20424;-80
2021/04/14 06:26:25;;;;;;;9.10;6.53;;;10.70;83.20;;;;;;6113181;23;20514;-80
2021/04/14 06:28:52;;;;;;;7.43;5.83;;;12.50;81.80;;;;;;6148255;23;20473;-82
2021/04/14 06:31:45;;;;;;;8.00;5.63;;;13.90;74.00;;;;;;6173908;23;21028;-80
2021/04/14 06:34:35;;;;;;;5.87;5.37;;;14.70;70.90;;;;;;6174063;23;20451;-81
2021/04/14 06:37:52;;;;;;;;;;;;;;;;;;;;;
2021/04/14 06:44:01;;;;;;;7.73;5.60;;;14.60;64.70;;;;;;6172582;23;20418;-79
2021/04/14 06:47:11;;;;;;;8.27;5.90;;;14.80;62.60;;;;;;6193396;23;20406;-79
2021/04/14 06:50:11;;;;;;;7.97;6.27;;;15.10;61.60;;;;;;6195203;23;20479;-78
2021/04/14 06:53:03;;;;;;;6.07;5.47;;;15.60;60.30;;;;;;6173966;23;20982;-79
2021/04/14 06:56:02;;;;;;;6.73;5.60;;;15.70;59.10;;;;;;6183910;23;20430;-80
2021/04/14 06:59:18;;;;;;;7.80;5.77;;;16.40;57.70;;;;;;6159904;23;20397;-82
2021/04/14 07:02:08;;;;;;;11.80;8.10;;;16.70;56.80;;;;;;6160416;23;20459;-79
2021/04/14 07:04:45;;;;;;;7.80;5.73;;;17.60;55.50;;;;;;6156441;23;20435;-78
2021/04/14 07:07:23;;;;;;;6.30;5.70;;;18.10;53.20;;;;;;6174699;23;20515;-81
2021/04/14 07:09:53;;;;;;;8.50;6.50;;;17.90;52.20;;;;;;6148004;23;20419;-81
2021/04/14 07:12:23;;;;;;;10.17;6.53;;;17.50;52.30;;;;;;6171645;23;21078;-79
2021/04/14 07:14:53;;;;;;;7.60;6.80;;;17.70;52.40;;;;;;6174317;23;20446;-80
2021/04/14 07:17:40;;;;;;;7.50;6.80;;;18.00;51.70;;;;;;6152201;23;20487;-81
2021/04/14 07:20:23;;;;;;;7.40;6.67;;;18.60;50.60;;;;;;6154301;23;20411;-79
2021/04/14 07:22:57;;;;;;;6.77;6.17;;;17.80;49.80;;;;;;6183633;23;20724;-79
2021/04/14 07:25:56;;;;;;;9.63;8.23;;;17.90;50.50;;;;;;6151399;23;20450;-78
2021/04/14 07:28:34;;;;;;;7.97;7.17;;;18.20;49.90;;;;;;6149485;23;20898;-81
2021/04/14 07:31:15;;;;;;;7.27;6.60;;;18.10;49.30;;;;;;6152579;23;20422;-78
2021/04/14 07:34:05;;;;;;;8.80;7.00;;;17.90;49.60;;;;;;6177702;23;20980;-83
2021/04/14 07:36:41;;;;;;;9.00;6.63;;;18.40;49.80;;;;;;6177677;23;20442;-83
2021/04/14 07:39:21;;;;;;;7.70;6.73;;;19.10;47.70;;;;;;6152579;23;20950;-81
2021/04/14 07:41:57;;;;;;;12.83;7.37;;;19.30;47.00;;;;;;6153291;23;20442;-81
2021/04/14 07:44:34;;;;;;;7.73;7.03;;;19.60;46.40;;;;;;6174711;23;20457;-79
2021/04/14 07:47:01;;;;;;;7.97;7.27;;;19.40;46.00;;;;;;6177766;23;20439;-82
2021/04/14 07:49:34;;;;;;;8.53;7.10;;;19.00;45.80;;;;;;6175688;23;20406;-82
2021/04/14 07:52:00;;;;;;;8.70;7.90;;;18.00;46.00;;;;;;6151570;23;20427;-84
2021/04/14 07:54:39;;;;;;;8.10;7.40;;;16.70;48.70;;;;;;6175923;23;20439;-81
2021/04/14 07:57:07;;;;;;;10.00;7.13;;;16.60;49.90;;;;;;6159812;23;20605;-80
2021/04/14 07:59:40;;;;;;;9.50;8.27;;;17.10;49.70;;;;;;6161298;23;20640;-78
2021/04/14 08:02:13;;;;;;;9.03;7.50;;;17.90;48.90;;;;;;6183995;23;20403;-81
2021/04/14 08:04:46;;;;;;;11.70;7.63;;;18.60;47.00;;;;;;6181513;23;20780;-82
2021/04/14 08:07:19;;;;;;;9.50;8.17;;;18.10;46.10;;;;;;6162663;23;20418;-80
2021/04/14 08:10:16;;;;;;;11.07;7.93;;;16.30;48.00;;;;;;6163143;23;20414;-80
2021/04/14 08:12:52;;;;;;;7.47;6.77;;;16.70;49.60;;;;;;6158641;23;20898;-81
2021/04/14 08:15:29;;;;;;;7.67;6.90;;;17.10;48.40;;;;;;6176543;23;20461;-80
2021/04/14 08:18:10;;;;;;;6.07;5.57;;;17.60;46.30;;;;;;6151569;23;20399;-82
2021/04/14 08:20:39;;;;;;;6.60;6.00;;;16.40;46.40;;;;;;6153222;23;20473;-82
2021/04/14 08:23:11;;;;;;;7.70;6.60;;;15.40;48.20;;;;;;6176219;23;20419;-81
2021/04/14 08:25:52;;;;;;;12.43;7.40;;;14.70;49.90;;;;;;6174609;23;20442;-80
2021/04/14 08:28:43;;;;;;;8.57;6.30;;;14.30;51.30;;;;;;6175260;23;20418;-83
2021/04/14 08:31:48;;;;;;;6.53;5.97;;;15.00;51.50;;;;;;6151286;23;20490;-81
2021/04/14 08:34:28;;;;;;;6.03;5.20;;;16.60;49.90;;;;;;6174088;23;20435;-81
2021/04/14 08:37:19;;;;;;;3.30;2.80;;;19.10;44.70;;;;;;6175005;23;20457;-82
2021/04/14 08:40:04;;;;;;;3.20;2.40;;;19.20;41.90;;;;;;6154867;23;20411;-81
2021/04/14 08:42:35;;;;;;;13.17;4.30;;;18.30;40.60;;;;;;6181215;23;20418;-83
2021/04/14 08:58:34;;;;;;;6.30;5.20;;;15.20;46.40;;;;;;6153957;23;20473;-81
2021/04/14 09:02:04;;;;;;;7.90;5.40;;;14.90;46.60;;;;;;6093150;23;20427;-80
2021/04/14 09:09:53;;;;;;;;;;;;;;;;;;;;;
2021/04/14 09:12:55;;;;;;;6.50;5.10;;;14.30;45.00;;;;;;6091438;23;20379;-81
2021/04/14 09:15:47;;;;;;;7.70;6.67;;;12.70;48.80;;;;;;6111439;23;20555;-81
2021/04/14 09:18:46;;;;;;;9.73;6.70;;;11.90;52.00;;;;;;6100154;23;20407;-84
2021/04/14 09:21:21;;;;;;;10.23;7.10;;;10.80;55.10;;;;;;6123894;23;20443;-82
2021/04/14 09:23:56;;;;;;;9.60;7.40;;;10.30;57.20;;;;;;6128096;23;20490;-79
2021/04/14 09:27:02;;;;;;;10.57;7.30;;;9.90;59.30;;;;;;6133400;23;20514;-81
2021/04/14 09:29:38;;;;;;;9.10;7.40;;;10.00;59.70;;;;;;6101922;23;20435;-79
2021/04/14 09:32:40;;;;;;;9.37;7.07;;;9.90;61.60;;;;;;6133087;23;20417;-79
2021/04/14 09:35:39;;;;;;;8.77;7.87;;;10.20;60.20;;;;;;6119380;23;20480;-82
2021/04/14 09:41:48;;;;;;;9.07;7.80;;;9.80;62.60;;;;;;6116998;23;20443;-82
2021/04/14 09:45:07;;;;;;;8.63;7.60;;;10.20;64.20;;;;;;6121682;23;20503;-83
2021/04/14 09:48:23;;;;;;;;;;;;;;;;;;;;;
2021/04/14 10:03:06;;;;;;;;;;;;;;;;;;;;;
2021/04/14 10:10:07;;;;;;;10.90;7.70;;;13.20;58.90;;;;;;5934813;24;20536;-81
2021/04/14 10:13:18;;;;;;;10.30;9.20;;;13.50;59.20;;;;;;5927567;24;20488;-79
2021/04/14 10:15:55;;;;;;;12.97;10.33;;;13.50;58.90;;;;;;5921764;24;20457;-79
2021/04/14 10:18:43;;;;;;;;;;;;;;;;;;;;;
2021/04/14 10:21:35;;;;;;;14.27;10.50;;;12.10;61.60;;;;;;6087885;23;20420;-81
2021/04/14 10:24:22;;;;;;;10.63;8.80;;;12.60;63.50;;;;;;6083057;23;20464;-80
2021/04/14 10:27:26;;;;;;;12.60;8.97;;;13.00;62.20;;;;;;6102555;23;20416;-82
2021/04/14 10:30:14;;;;;;;10.23;9.23;;;12.60;60.50;;;;;;6121000;23;20440;-80
2021/04/14 10:33:25;;;;;;;9.43;8.50;;;13.00;59.70;;;;;;6117145;23;20416;-80
2021/04/14 10:36:30;;;;;;;9.97;8.63;;;14.50;55.90;;;;;;6115268;23;20530;-82
2021/04/14 10:39:41;;;;;;;10.43;9.43;;;14.70;54.70;;;;;;6116623;23;20451;-76
2021/04/14 10:42:40;;;;;;;12.70;9.70;;;15.10;52.80;;;;;;6117370;23;20478;-80
2021/04/14 10:45:15;;;;;;;10.33;9.33;;;14.90;52.10;;;;;;6117022;23;20800;-79
2021/04/14 10:48:22;;;;;;;11.50;10.37;;;15.10;51.30;;;;;;6115110;23;20406;-82
2021/04/14 10:55:55;;;;;;;;;;;;;;;;;;;;;
2021/04/14 10:58:57;;;;;;;10.90;9.20;;;14.20;47.70;;;;;;6113203;23;20463;-82
2021/04/14 11:02:19;;;;;;;10.20;8.90;;;14.50;47.70;;;;;;6003356;23;20411;-82
2021/04/14 11:05:14;;;;;;;11.10;9.47;;;14.90;44.40;;;;;;5945075;24;20543;-81
2021/04/14 11:08:46;;;;;;;9.60;8.70;;;14.40;44.10;;;;;;5903992;24;20414;-83
2021/04/14 11:15:09;;;;;;;10.73;9.63;;;14.20;43.80;;;;;;6027454;23;21232;-79
2021/04/14 11:18:33;;;;;;;9.43;8.53;;;14.80;44.90;;;;;;6151560;23;20427;-81
2021/04/14 11:22:10;;;;;;;9.93;8.93;;;15.20;44.00;;;;;;6059454;23;20417;-82
2021/04/14 11:25:04;;;;;;;10.53;9.53;;;15.90;43.20;;;;;;6018332;23;20437;-79
2021/04/14 11:28:11;;;;;;;10.63;9.60;;;16.80;40.60;;;;;;6038553;23;20413;-78
2021/04/14 11:31:24;;;;;;;10.67;9.73;;;16.60;40.10;;;;;;6059362;23;20406;-80
2021/04/14 11:34:38;;;;;;;9.00;8.10;;;16.70;40.50;;;;;;6059033;23;20418;-79
2021/04/14 11:37:31;;;;;;;9.60;8.77;;;16.20;39.30;;;;;;6072596;23;20436;-79
2021/04/14 11:40:29;;;;;;;10.23;9.20;;;15.70;39.50;;;;;;6052038;23;20397;-78
2021/04/14 11:43:43;;;;;;;9.90;9.00;;;15.40;40.40;;;;;;6074556;23;20410;-80
2021/04/14 11:46:52;;;;;;;;;;;;;;;;;;;;;
2021/04/14 11:49:51;;;;;;;10.10;9.20;;;16.10;39.70;;;;;;6061620;23;21058;-78
2021/04/14 11:52:40;;;;;;;10.60;9.70;;;16.40;39.70;;;;;;6056107;23;20552;-80
2021/04/14 11:56:20;;;;;;;10.97;9.10;;;16.30;40.20;;;;;;6043777;23;20449;-81
2021/04/14 11:59:42;;;;;;;9.30;8.47;;;17.30;40.00;;;;;;6100628;23;20419;-78
2021/04/14 12:02:14;;;;;;;8.67;7.87;;;17.50;38.30;;;;;;6117932;23;20472;-80
2021/04/14 12:05:20;;;;;;;8.43;6.90;;;17.00;38.40;;;;;;6117964;23;20441;-81
2021/04/14 12:08:54;;;;;;;;;;;;;;;;;;;;;
2021/04/14 12:12:22;;;;;;;7.20;6.60;;;14.30;40.30;;;;;;6119814;23;20859;-80
2021/04/14 12:15:42;;;;;;;7.97;7.10;;;13.60;41.60;;;;;;6105721;23;20483;-79
2021/04/14 12:18:37;;;;;;;7.20;6.57;;;13.40;42.80;;;;;;6144314;23;20450;-81
2021/04/14 12:21:42;;;;;;;7.03;6.43;;;12.90;45.20;;;;;;6125565;23;21254;-81
2021/04/14 12:24:44;;;;;;;6.73;6.13;;;12.40;49.20;;;;;;6152158;23;20447;-80
2021/04/14 12:27:46;;;;;;;6.73;6.10;;;12.30;50.30;;;;;;6122186;23;20413;-78
2021/04/14 12:30:31;;;;;;;7.00;6.30;;;12.00;53.90;;;;;;6147640;23;20418;-81
2021/04/14 12:33:29;;;;;;;6.90;6.30;;;11.30;54.10;;;;;;6147976;23;20423;-80
2021/04/14 12:36:13;;;;;;;;;;;;;;;;;;;;;
2021/04/14 12:39:06;;;;;;;5.80;5.20;;;11.00;56.30;;;;;;6148082;23;20473;-79
2021/04/14 12:41:35;;;;;;;6.77;6.17;;;11.10;55.20;;;;;;6150346;23;20419;-79
2021/04/14 12:44:22;;;;;;;6.40;5.80;;;11.10;54.30;;;;;;6122421;23;21241;-82
2021/04/14 12:51:27;;;;;;;7.87;6.80;;;11.40;51.00;;;;;;6150293;23;20415;-82
2021/04/14 12:54:23;;;;;;;6.23;5.63;;;11.80;52.50;;;;;;6123657;23;20435;-79
2021/04/14 12:57:12;;;;;;;6.83;6.07;;;12.20;50.00;;;;;;6148433;23;20453;-84
2021/04/14 12:59:58;;;;;;;7.30;6.33;;;12.50;48.80;;;;;;6129104;23;20415;-77
2021/04/14 13:03:19;;;;;;;8.00;6.60;;;12.60;46.70;;;;;;6151908;23;20453;-79
2021/04/14 13:06:03;;;;;;;9.33;6.50;;;13.60;45.30;;;;;;6075709;23;20406;-78
2021/04/14 13:08:41;;;;;;;8.00;7.20;;;14.70;45.90;;;;;;6162897;23;20438;-78
2021/04/14 13:15:19;;;;;;;6.93;6.33;;;14.60;43.60;;;;;;6149655;23;20470;-81
2021/04/14 13:18:10;;;;;;;7.53;6.73;;;14.90;42.30;;;;;;6108628;23;20449;-81
2021/04/14 13:20:46;;;;;;;7.27;6.57;;;14.70;41.80;;;;;;6147901;23;20415;-82
2021/04/14 13:23:32;;;;;;;7.10;6.50;;;14.90;42.20;;;;;;6146771;23;20430;-79
2021/04/14 13:26:28;;;;;;;7.70;7.00;;;15.10;41.70;;;;;;6148956;23;20761;-82
2021/04/14 13:29:24;;;;;;;9.33;7.33;;;15.00;42.50;;;;;;6146584;23;20485;-80
2021/04/14 13:32:18;;;;;;;7.30;6.70;;;14.90;43.30;;;;;;6148365;23;20485;-82
2021/04/14 13:35:00;;;;;;;8.00;7.20;;;14.60;43.40;;;;;;6147959;23;20490;-80
2021/04/14 13:37:44;;;;;;;11.20;9.73;;;14.20;46.40;;;;;;6122310;23;20411;-82
2021/04/14 13:40:43;;;;;;;11.63;9.63;;;13.70;51.20;;;;;;6148457;23;20525;-81
2021/04/14 13:43:41;;;;;;;11.83;10.60;;;13.10;53.30;;;;;;6145868;23;20493;-79
2021/04/14 13:46:40;;;;;;;14.10;11.13;;;12.60;54.70;;;;;;6126623;23;20445;-78
2021/04/14 13:49:42;;;;;;;11.23;10.03;;;12.00;56.30;;;;;;6146357;23;20453;-82
2021/04/14 13:52:25;;;;;;;13.40;10.93;;;11.40;57.70;;;;;;6150756;23;20407;-78
2021/04/14 13:55:07;;;;;;;10.77;9.60;;;11.00;59.20;;;;;;6164349;23;20439;-78
2021/04/14 13:58:13;;;;;;;11.40;10.20;;;10.90;59.50;;;;;;6168282;23;20399;-80
2021/04/14 14:01:03;;;;;;;12.80;11.50;;;10.90;61.40;;;;;;6154322;23;20404;-79
2021/04/14 14:03:32;;;;;;;10.67;9.37;;;10.90;62.50;;;;;;6145820;23;20426;-78
2021/04/14 14:06:20;;;;;;;11.70;10.53;;;11.00;62.30;;;;;;6173316;23;20474;-80
2021/04/14 14:08:58;;;;;;;11.13;9.90;;;11.20;62.60;;;;;;6161215;23;20407;-80
2021/04/14 14:11:33;;;;;;;10.33;9.23;;;11.10;62.80;;;;;;6150425;23;20470;-79
2021/04/14 14:14:20;;;;;;;12.53;10.30;;;11.20;64.00;;;;;;6148237;23;20435;-80
2021/04/14 14:17:15;;;;;;;11.60;9.90;;;11.20;64.50;;;;;;6128732;23;20513;-81
2021/04/14 14:19:48;;;;;;;9.43;8.63;;;11.20;64.40;;;;;;6121969;23;20422;-80
2021/04/14 14:22:31;;;;;;;10.43;9.53;;;11.70;64.30;;;;;;6125344;23;20410;-80
2021/04/14 14:25:21;;;;;;;9.40;8.63;;;12.00;62.70;;;;;;6149002;23;21168;-80
2021/04/14 14:28:09;;;;;;;8.40;7.57;;;12.20;62.50;;;;;;6147230;23;20421;-82
2021/04/14 14:30:44;;;;;;;8.60;7.90;;;12.10;61.60;;;;;;6148963;23;20453;-80
2021/04/14 14:33:18;;;;;;;8.00;7.30;;;12.20;60.40;;;;;;6144977;23;20418;-80
2021/04/14 14:36:18;;;;;;;7.13;6.53;;;12.40;59.00;;;;;;6168400;23;20438;-78
2021/04/14 14:39:25;;;;;;;7.40;6.57;;;12.30;58.40;;;;;;6152368;23;20893;-81
2021/04/14 14:42:40;;;;;;;6.00;5.10;;;12.40;58.00;;;;;;6150659;23;20853;-80
2021/04/14 14:45:41;;;;;;;6.80;5.33;;;12.50;58.20;;;;;;6152889;23;20501;-81
2021/04/14 14:48:50;;;;;;;7.80;6.47;;;12.50;57.30;;;;;;6128400;23;20410;-81
2021/04/14 14:51:26;;;;;;;8.03;5.93;;;12.30;58.00;;;;;;6153600;23;20427;-81
2021/04/14 14:54:05;;;;;;;8.03;7.40;;;12.40;58.40;;;;;;6151762;23;20517;-82
2021/04/14 14:56:39;;;;;;;6.80;6.20;;;12.70;55.80;;;;;;6154322;23;21028;-79
2021/04/14 15:05:39;;;;;;;6.83;6.30;;;12.40;56.00;;;;;;6142340;23;20436;-81
2021/04/14 15:08:49;;;;;;;7.27;6.60;;;12.70;54.70;;;;;;6118871;23;20495;-80
2021/04/14 15:11:32;;;;;;;7.00;6.30;;;12.60;53.30;;;;;;6136863;23;20403;-79
2021/04/14 15:15:05;;;;;;;7.57;6.80;;;12.60;53.20;;;;;;6111551;23;20515;-80
2021/04/14 15:21:48;;;;;;;7.43;6.70;;;12.40;53.20;;;;;;6127167;23;20411;-80
2021/04/14 15:24:33;;;;;;;7.10;6.40;;;12.40;51.50;;;;;;6121730;23;20439;-80
2021/04/14 15:27:29;;;;;;;6.93;6.33;;;12.30;50.40;;;;;;6097038;23;20639;-82
2021/04/14 15:30:26;;;;;;;7.67;6.97;;;12.30;50.60;;;;;;6147988;23;20505;-81
2021/04/14 15:33:00;;;;;;;9.40;6.93;;;12.30;49.90;;;;;;6160432;23;20485;-80
2021/04/14 15:35:51;;;;;;;7.27;6.57;;;12.30;49.80;;;;;;6161210;23;20438;-85
2021/04/14 15:38:45;;;;;;;;;;;;;;;;;;;;;
2021/04/14 15:41:44;;;;;;;6.80;6.10;;;12.60;49.30;;;;;;6150616;23;20407;-82
2021/04/14 15:44:21;;;;;;;7.23;6.30;;;12.60;49.10;;;;;;6161443;23;20451;-81
2021/04/14 15:46:56;;;;;;;7.33;6.70;;;12.50;48.90;;;;;;6168944;23;20402;-80
2021/04/14 15:49:25;;;;;;;7.87;7.07;;;12.20;50.00;;;;;;6175871;23;20485;-81
2021/04/14 15:52:12;;;;;;;7.20;6.50;;;12.00;50.50;;;;;;6150547;23;20407;-80
2021/04/14 15:55:00;;;;;;;8.07;6.63;;;11.90;50.60;;;;;;6173331;23;20438;-79
2021/04/14 15:57:44;;;;;;;6.70;5.70;;;11.90;50.70;;;;;;6175857;23;20456;-80
2021/04/14 16:03:17;;;;;;;6.07;5.47;;;12.30;49.30;;;;;;6165442;23;20447;-81
2021/04/14 16:05:55;;;;;;;7.87;5.33;;;12.30;48.00;;;;;;6139666;23;20571;-78
2021/04/14 16:09:33;;;;;;;;;;;;;;;;;;;;;
2021/04/14 16:12:27;;;;;;;7.40;5.90;;;12.10;48.50;;;;;;6126073;23;20431;-81
2021/04/14 16:15:29;;;;;;;7.60;5.90;;;12.30;49.30;;;;;;6126431;23;20483;-80
2021/04/14 16:18:37;;;;;;;6.47;5.93;;;12.30;48.80;;;;;;6117365;23;20447;-81
2021/04/14 16:21:13;;;;;;;6.20;5.63;;;12.20;49.40;;;;;;6121670;23;20432;-80
2021/04/14 16:24:11;;;;;;;6.10;5.50;;;12.40;48.60;;;;;;6123030;23;20468;-79
2021/04/14 16:27:04;;;;;;;6.60;6.10;;;12.40;46.60;;;;;;6111943;23;20740;-80
2021/04/14 16:30:11;;;;;;;11.23;6.77;;;12.00;47.40;;;;;;6101390;23;20437;-79
2021/04/14 16:32:53;;;;;;;7.00;6.40;;;11.80;47.70;;;;;;6116328;23;20412;-79
2021/04/14 16:36:03;;;;;;;7.30;6.60;;;11.70;48.20;;;;;;6089373;23;20532;-77
2021/04/14 16:38:53;;;;;;;6.07;5.57;;;11.80;49.20;;;;;;6137006;23;20474;-78